createdAt,value
2023-04-22T00:00:41.215Z,7.05
2023-04-22T00:01:43.421Z,7.82
2023-04-22T00:02:46.040Z,6.53
2023-04-22T00:03:48.927Z,7.53
2023-04-22T00:04:51.596Z,7.60
2023-04-22T00:05:54.741Z,6.97
2023-04-22T00:06:57.003Z,7.43
2023-04-22T00:07:59.121Z,7.53
2023-04-22T00:09:01.251Z,6.97
2023-04-22T00:10:04.175Z,7.32
2023-04-22T00:11:06.687Z,7.63
2023-04-22T00:12:09.258Z,7.28
2023-04-22T00:13:11.497Z,6.82
2023-04-22T00:14:13.660Z,8.02
2023-04-22T00:15:15.788Z,8.45
2023-04-22T00:16:19.697Z,8.52
2023-04-22T00:17:21.866Z,7.22
2023-04-22T00:18:24.145Z,8.07
2023-04-22T00:19:26.258Z,7.82
2023-04-22T00:20:29.395Z,7.50
2023-04-22T00:21:32.526Z,7.90
2023-04-22T00:22:34.637Z,7.65
2023-04-22T00:23:36.818Z,7.65
2023-04-22T00:24:39.172Z,7.47
2023-04-22T00:25:41.328Z,7.22
2023-04-22T00:26:43.456Z,7.07
2023-04-22T00:27:45.855Z,7.13
2023-04-22T00:28:47.986Z,6.60
2023-04-22T00:29:50.120Z,7.00
2023-04-22T00:30:52.257Z,6.95
2023-04-22T00:31:55.850Z,6.88
2023-04-22T00:32:58.214Z,5.88
2023-04-22T00:34:00.343Z,6.55
2023-04-22T00:35:02.462Z,6.72
2023-04-22T00:36:05.024Z,5.63
2023-04-22T00:37:07.360Z,5.78
2023-04-22T00:38:09.501Z,5.75
2023-04-22T00:39:12.555Z,5.43
2023-04-22T00:40:14.750Z,5.22
2023-04-22T00:41:17.159Z,5.53
2023-04-22T00:42:19.482Z,5.20
2023-04-22T00:43:21.602Z,5.32
2023-04-22T00:44:25.324Z,4.90
2023-04-22T00:45:27.622Z,5.03
2023-04-22T00:46:30.877Z,5.28
2023-04-22T00:47:35.104Z,4.63
2023-04-22T00:48:38.470Z,5.05
2023-04-22T00:49:40.983Z,4.53
2023-04-22T00:50:43.587Z,4.65
2023-04-22T00:51:45.707Z,5.13
2023-04-22T00:52:48.034Z,4.90
2023-04-22T00:53:50.322Z,4.85
2023-04-22T00:54:52.685Z,5.13
2023-04-22T00:55:54.940Z,4.22
2023-04-22T00:56:58.207Z,4.63
2023-04-22T00:58:02.881Z,4.85
2023-04-22T00:59:05.193Z,4.15
2023-04-22T01:00:10.153Z,4.15
2023-04-22T01:01:12.805Z,4.40
2023-04-22T01:02:15.798Z,4.20
2023-04-22T01:03:20.806Z,4.03
2023-04-22T01:04:24.062Z,4.78
2023-04-22T01:05:27.113Z,4.32
2023-04-22T01:06:32.405Z,5.03
2023-04-22T01:07:34.880Z,4.60
2023-04-22T01:08:37.101Z,4.50
2023-04-22T01:09:40.358Z,4.13
2023-04-22T01:10:43.317Z,4.28
2023-04-22T01:11:46.444Z,4.22
2023-04-22T01:12:48.600Z,3.92
2023-04-22T01:13:51.547Z,4.00
2023-04-22T01:14:53.927Z,4.50
2023-04-22T01:15:56.478Z,4.82
2023-04-22T01:16:58.988Z,4.53
2023-04-22T01:18:04.800Z,4.40
2023-04-22T01:19:09.145Z,4.50
2023-04-22T01:20:12.281Z,5.05
2023-04-22T01:21:14.721Z,4.47
2023-04-22T01:22:17.563Z,4.32
2023-04-22T01:23:21.959Z,4.10
2023-04-22T01:24:24.486Z,5.00
2023-04-22T01:25:27.374Z,4.35
2023-04-22T01:26:29.686Z,4.38
2023-04-22T01:27:32.091Z,5.00
2023-04-22T01:28:34.481Z,4.55
2023-04-22T01:29:37.389Z,4.78
2023-04-22T01:30:41.050Z,4.78
2023-04-22T01:32:53.840Z,5.20
2023-04-22T01:33:56.216Z,4.97
2023-04-22T01:34:59.017Z,5.00
2023-04-22T01:36:01.447Z,4.78
2023-04-22T01:37:03.715Z,5.18
2023-04-22T01:38:07.359Z,4.40
2023-04-22T01:39:11.011Z,5.07
2023-04-22T01:40:16.559Z,4.93
2023-04-22T01:41:20.392Z,5.10
2023-04-22T01:42:22.894Z,4.72
2023-04-22T01:43:25.079Z,4.68
2023-04-22T01:44:27.463Z,4.80
2023-04-22T01:45:30.015Z,5.00
2023-04-22T01:46:33.546Z,4.70
2023-04-22T01:47:35.816Z,5.32
2023-04-22T01:48:43.959Z,4.93
2023-04-22T01:49:46.257Z,5.80
2023-04-22T01:50:48.416Z,4.88
2023-04-22T01:51:50.529Z,4.68
2023-04-22T01:52:53.037Z,5.43
2023-04-22T01:53:55.203Z,5.20
2023-04-22T01:54:58.857Z,6.13
2023-04-22T01:56:01.252Z,6.03
2023-04-22T01:57:10.271Z,5.55
2023-04-22T01:58:12.444Z,5.15
2023-04-22T01:59:14.578Z,5.50
2023-04-22T02:00:17.168Z,5.10
2023-04-22T02:01:19.268Z,5.80
2023-04-22T02:02:21.639Z,6.10
2023-04-22T02:03:24.036Z,5.43
2023-04-22T02:04:26.466Z,5.78
2023-04-22T02:05:28.807Z,5.60
2023-04-22T02:06:32.214Z,5.40
2023-04-22T02:07:34.719Z,5.32
2023-04-22T02:08:36.924Z,5.20
2023-04-22T02:09:39.475Z,5.57
2023-04-22T02:10:43.639Z,5.43
2023-04-22T02:11:46.412Z,4.70
2023-04-22T02:12:48.653Z,4.60
2023-04-22T02:13:51.125Z,4.35
2023-04-22T02:14:53.382Z,4.40
2023-04-22T02:15:55.567Z,4.32
2023-04-22T02:16:58.124Z,4.78
2023-04-22T02:18:00.705Z,4.82
2023-04-22T02:19:02.850Z,4.22
2023-04-22T02:20:06.364Z,4.30
2023-04-22T02:21:09.281Z,4.70
2023-04-22T02:22:11.421Z,4.47
2023-04-22T02:23:13.622Z,4.13
2023-04-22T02:24:16.616Z,4.07
2023-04-22T02:25:19.014Z,4.10
2023-04-22T02:26:23.717Z,3.95
2023-04-22T02:27:25.917Z,3.88
2023-04-22T02:28:28.182Z,4.15
2023-04-22T02:29:32.114Z,4.35
2023-04-22T02:30:34.366Z,4.03
2023-04-22T02:31:36.571Z,3.83
2023-04-22T02:32:40.300Z,4.35
2023-04-22T02:33:42.502Z,4.40
2023-04-22T02:34:44.645Z,4.68
2023-04-22T02:35:46.879Z,4.47
2023-04-22T02:36:49.002Z,4.20
2023-04-22T02:37:51.138Z,4.32
2023-04-22T02:38:53.462Z,4.13
2023-04-22T02:39:55.820Z,4.82
2023-04-22T02:40:57.966Z,5.10
2023-04-22T02:42:01.955Z,4.65
2023-04-22T02:43:04.512Z,4.68
2023-04-22T02:44:06.735Z,5.25
2023-04-22T02:45:09.620Z,4.95
2023-04-22T02:46:13.189Z,5.35
2023-04-22T02:47:15.472Z,5.60
2023-04-22T02:48:17.673Z,5.35
2023-04-22T02:49:19.799Z,5.15
2023-04-22T02:50:22.293Z,5.72
2023-04-22T02:51:24.439Z,6.25
2023-04-22T02:52:26.557Z,5.68
2023-04-22T02:53:28.667Z,6.57
2023-04-22T02:54:30.951Z,6.40
2023-04-22T02:55:33.096Z,6.63
2023-04-22T02:56:35.313Z,6.60
2023-04-22T02:57:38.799Z,6.70
2023-04-22T02:58:40.923Z,7.05
2023-04-22T02:59:43.030Z,7.25
2023-04-22T03:00:45.258Z,7.15
2023-04-22T03:01:47.465Z,7.85
2023-04-22T03:02:49.733Z,7.80
2023-04-22T03:03:52.169Z,7.60
2023-04-22T03:04:54.472Z,7.63
2023-04-22T03:05:56.574Z,7.53
2023-04-22T03:06:59.227Z,8.07
2023-04-22T03:08:01.432Z,8.35
2023-04-22T03:09:04.143Z,9.07
2023-04-22T03:10:07.807Z,8.98
2023-04-22T03:11:09.937Z,8.57
2023-04-22T03:12:12.046Z,8.05
2023-04-22T03:13:15.559Z,8.50
2023-04-22T03:14:17.705Z,8.10
2023-04-22T03:15:21.621Z,7.88
2023-04-22T03:16:24.707Z,8.02
2023-04-22T03:17:28.078Z,8.23
2023-04-22T03:18:30.431Z,8.60
2023-04-22T03:19:32.592Z,8.40
2023-04-22T03:20:34.908Z,8.18
2023-04-22T03:21:37.012Z,8.82
2023-04-22T03:22:39.315Z,8.57
2023-04-22T03:23:41.625Z,8.00
2023-04-22T03:24:43.700Z,8.40
2023-04-22T03:25:45.826Z,7.88
2023-04-22T03:26:47.951Z,8.43
2023-04-22T03:27:50.265Z,7.80
2023-04-22T03:28:53.766Z,8.10
2023-04-22T03:29:55.892Z,8.30
2023-04-22T03:30:58.387Z,8.60
2023-04-22T03:32:00.706Z,8.52
2023-04-22T03:33:03.226Z,9.38
2023-04-22T03:34:06.318Z,7.43
2023-04-22T03:35:09.157Z,8.68
2023-04-22T03:36:11.297Z,8.55
2023-04-22T03:37:13.503Z,8.45
2023-04-22T03:38:15.887Z,8.80
2023-04-22T03:39:18.045Z,8.63
2023-04-22T03:40:20.306Z,7.82
2023-04-22T03:41:23.579Z,8.00
2023-04-22T03:42:25.841Z,8.48
2023-04-22T03:43:28.075Z,8.25
2023-04-22T03:44:31.630Z,8.15
2023-04-22T03:45:34.553Z,8.10
2023-04-22T03:46:36.783Z,8.48
2023-04-22T03:47:39.364Z,7.93
2023-04-22T03:48:41.515Z,7.65
2023-04-22T03:49:43.684Z,8.13
2023-04-22T03:50:45.985Z,8.73
2023-04-22T03:51:48.153Z,7.57
2023-04-22T03:52:50.260Z,8.00
2023-04-22T03:53:52.452Z,7.72
2023-04-22T03:54:54.683Z,7.68
2023-04-22T03:55:57.036Z,8.30
2023-04-22T03:56:59.154Z,8.38
2023-04-22T03:58:01.346Z,8.30
2023-04-22T03:59:03.573Z,8.48
2023-04-22T04:00:08.530Z,8.45
2023-04-22T04:01:11.918Z,8.82
2023-04-22T04:02:14.210Z,8.63
2023-04-22T04:03:16.782Z,8.70
2023-04-22T04:04:19.432Z,8.65
2023-04-22T04:05:21.913Z,8.93
2023-04-22T04:06:24.144Z,8.27
2023-04-22T04:07:26.306Z,8.25
2023-04-22T04:08:28.526Z,8.65
2023-04-22T04:09:30.804Z,8.50
2023-04-22T04:10:32.930Z,8.50
2023-04-22T04:11:35.205Z,7.97
2023-04-22T04:12:37.326Z,7.75
2023-04-22T04:13:39.438Z,7.90
2023-04-22T04:14:41.636Z,7.80
2023-04-22T04:15:45.312Z,6.75
2023-04-22T04:16:47.695Z,6.47
2023-04-22T04:17:50.611Z,6.65
2023-04-22T04:18:53.006Z,7.70
2023-04-22T04:19:55.533Z,7.20
2023-04-22T04:20:57.680Z,6.18
2023-04-22T04:22:00.764Z,6.93
2023-04-22T04:23:04.011Z,6.68
2023-04-22T04:24:07.270Z,6.35
2023-04-22T04:25:10.399Z,5.97
2023-04-22T04:26:15.148Z,6.30
2023-04-22T04:27:17.292Z,5.90
2023-04-22T04:28:20.854Z,6.00
2023-04-22T04:29:23.933Z,6.35
2023-04-22T04:30:26.250Z,5.18
2023-04-22T04:31:29.932Z,4.97
2023-04-22T04:32:34.581Z,5.70
2023-04-22T04:33:37.146Z,5.68
2023-04-22T04:34:39.288Z,5.68
2023-04-22T04:35:41.711Z,5.10
2023-04-22T04:36:43.883Z,4.82
2023-04-22T04:37:46.455Z,5.10
2023-04-22T04:38:48.917Z,5.25
2023-04-22T04:39:51.044Z,4.18
2023-04-22T04:40:53.923Z,4.75
2023-04-22T04:41:58.801Z,4.85
2023-04-22T04:43:02.695Z,4.85
2023-04-22T04:44:04.942Z,4.75
2023-04-22T04:45:08.742Z,4.30
2023-04-22T04:46:11.000Z,4.40
2023-04-22T04:47:15.193Z,4.50
2023-04-22T04:48:17.510Z,4.13
2023-04-22T04:49:20.883Z,4.00
2023-04-22T04:50:23.346Z,4.18
2023-04-22T04:51:25.572Z,3.78
2023-04-22T04:52:27.736Z,4.38
2023-04-22T04:53:29.897Z,4.65
2023-04-22T04:54:32.057Z,4.05
2023-04-22T04:55:34.337Z,3.75
2023-04-22T04:56:36.495Z,4.35
2023-04-22T04:57:38.698Z,4.07
2023-04-22T04:58:40.977Z,3.90
2023-04-22T04:59:43.124Z,3.80
2023-04-22T05:00:45.226Z,3.47
2023-04-22T05:01:47.455Z,3.70
2023-04-22T05:02:51.213Z,3.60
2023-04-22T05:03:53.667Z,3.40
2023-04-22T05:04:56.043Z,3.38
2023-04-22T05:05:58.473Z,3.42
2023-04-22T05:07:00.872Z,3.28
2023-04-22T05:08:03.120Z,3.25
2023-04-22T05:09:05.495Z,3.70
2023-04-22T05:10:08.690Z,3.97
2023-04-22T05:11:10.821Z,3.50
2023-04-22T05:12:13.120Z,3.75
2023-04-22T05:13:15.424Z,3.90
2023-04-22T05:14:17.587Z,3.80
2023-04-22T05:15:19.721Z,3.50
2023-04-22T05:16:21.967Z,3.60
2023-04-22T05:17:24.269Z,3.47
2023-04-22T05:18:27.921Z,3.58
2023-04-22T05:19:30.371Z,2.85
2023-04-22T05:20:35.379Z,3.00
2023-04-22T05:21:38.421Z,3.35
2023-04-22T05:22:44.921Z,2.95
2023-04-22T05:23:47.063Z,2.67
2023-04-22T05:24:49.152Z,3.15
2023-04-22T05:25:53.304Z,3.10
2023-04-22T05:26:56.948Z,3.28
2023-04-22T05:27:59.123Z,3.17
2023-04-22T05:29:01.252Z,3.42
2023-04-22T05:30:03.771Z,2.88
2023-04-22T05:31:06.872Z,2.63
2023-04-22T05:32:09.081Z,3.20
2023-04-22T05:33:11.384Z,3.03
2023-04-22T05:34:14.996Z,3.35
2023-04-22T05:35:17.308Z,3.10
2023-04-22T05:36:19.465Z,3.00
2023-04-22T05:37:21.585Z,3.70
2023-04-22T05:38:23.828Z,3.10
2023-04-22T05:39:26.242Z,2.90
2023-04-22T05:40:28.358Z,2.58
2023-04-22T05:41:30.551Z,2.88
2023-04-22T05:42:32.740Z,3.15
2023-04-22T05:43:34.948Z,2.70
2023-04-22T05:44:37.135Z,3.20
2023-04-22T05:45:39.411Z,2.90
2023-04-22T05:46:41.724Z,3.28
2023-04-22T05:47:43.992Z,2.85
2023-04-22T05:48:48.805Z,2.67
2023-04-22T05:49:52.755Z,2.58
2023-04-22T05:50:54.986Z,3.30
2023-04-22T05:51:57.259Z,2.53
2023-04-22T05:52:59.483Z,3.00
2023-04-22T05:54:01.753Z,2.58
2023-04-22T05:55:04.411Z,3.42
2023-04-22T05:56:06.681Z,3.10
2023-04-22T05:57:08.901Z,2.80
2023-04-22T05:58:11.316Z,2.70
2023-04-22T05:59:13.509Z,2.70
2023-04-22T06:00:16.991Z,3.05
2023-04-22T06:01:19.127Z,2.80
2023-04-22T06:02:21.324Z,2.78
2023-04-22T06:03:23.726Z,3.00
2023-04-22T06:04:26.539Z,3.13
2023-04-22T06:05:30.344Z,3.70
2023-04-22T06:06:32.953Z,3.20
2023-04-22T06:07:35.107Z,3.30
2023-04-22T06:08:37.275Z,3.35
2023-04-22T06:09:39.611Z,3.60
2023-04-22T06:10:41.945Z,2.97
2023-04-22T06:11:44.100Z,3.33
2023-04-22T06:12:46.215Z,3.35
2023-04-22T06:13:48.316Z,3.53
2023-04-22T06:14:50.446Z,3.63
2023-04-22T06:15:52.615Z,3.15
2023-04-22T06:16:55.698Z,3.42
2023-04-22T06:17:57.834Z,3.30
2023-04-22T06:18:59.929Z,3.20
2023-04-22T06:20:02.051Z,2.80
2023-04-22T06:21:05.854Z,2.65
2023-04-22T06:22:07.971Z,2.88
2023-04-22T06:23:10.081Z,2.88
2023-04-22T06:24:12.207Z,2.88
2023-04-22T06:25:14.326Z,2.70
2023-04-22T06:26:16.453Z,2.63
2023-04-22T06:27:18.731Z,2.75
2023-04-22T06:28:21.152Z,2.30
2023-04-22T06:29:23.223Z,3.13
2023-04-22T06:30:25.624Z,2.50
2023-04-22T06:31:28.086Z,2.40
2023-04-22T06:32:30.624Z,2.25
2023-04-22T06:33:32.738Z,2.33
2023-04-22T06:34:34.965Z,2.22
2023-04-22T06:35:37.082Z,2.30
2023-04-22T06:36:40.913Z,2.60
2023-04-22T06:37:43.106Z,2.33
2023-04-22T06:38:45.263Z,2.53
2023-04-22T06:39:47.344Z,3.05
2023-04-22T06:40:49.449Z,2.80
2023-04-22T06:41:51.536Z,2.88
2023-04-22T06:42:53.905Z,2.70
2023-04-22T06:43:56.022Z,3.20
2023-04-22T06:44:58.102Z,3.17
2023-04-22T06:46:00.973Z,3.40
2023-04-22T06:47:03.375Z,3.70
2023-04-22T06:48:05.663Z,3.40
2023-04-22T06:49:07.752Z,3.58
2023-04-22T06:50:10.653Z,3.33
2023-04-22T06:51:12.813Z,3.22
2023-04-22T06:52:16.297Z,2.92
2023-04-22T06:53:18.370Z,3.25
2023-04-22T06:54:20.593Z,3.03
2023-04-22T06:55:22.669Z,2.40
2023-04-22T06:56:24.898Z,2.58
2023-04-22T06:57:27.058Z,2.47
2023-04-22T06:58:29.214Z,2.40
2023-04-22T06:59:31.338Z,2.50
2023-04-22T07:00:34.969Z,2.63
2023-04-22T07:01:37.084Z,2.55
2023-04-22T07:02:39.370Z,2.70
2023-04-22T07:03:41.648Z,2.58
2023-04-22T07:04:44.003Z,2.53
2023-04-22T07:05:46.614Z,3.00
2023-04-22T07:06:48.782Z,2.97
2023-04-22T07:07:52.255Z,3.33
2023-04-22T07:08:54.899Z,3.13
2023-04-22T07:09:57.158Z,2.92
2023-04-22T07:10:59.249Z,2.95
2023-04-22T07:12:01.706Z,2.42
2023-04-22T07:13:03.906Z,2.83
2023-04-22T07:14:06.004Z,2.80
2023-04-22T07:15:08.654Z,3.20
2023-04-22T07:16:11.093Z,2.65
2023-04-22T07:17:13.406Z,3.28
2023-04-22T07:18:15.546Z,3.50
2023-04-22T07:19:17.694Z,3.47
2023-04-22T07:20:19.957Z,2.80
2023-04-22T07:21:22.070Z,3.03
2023-04-22T07:22:24.195Z,3.40
2023-04-22T07:23:27.779Z,3.45
2023-04-22T07:24:29.922Z,4.05
2023-04-22T07:25:32.046Z,3.75
2023-04-22T07:26:34.510Z,4.00
2023-04-22T07:27:37.170Z,6.13
2023-04-22T07:28:39.576Z,7.03
2023-04-22T07:29:41.992Z,5.13
2023-04-22T07:30:44.318Z,4.88
2023-04-22T07:31:46.548Z,4.70
2023-04-22T07:32:49.154Z,4.43
2023-04-22T07:33:51.550Z,5.25
2023-04-22T07:34:53.650Z,3.90
2023-04-22T07:35:55.966Z,3.85
2023-04-22T07:36:58.238Z,4.63
2023-04-22T07:38:00.520Z,4.93
2023-04-22T07:39:04.423Z,5.63
2023-04-22T07:40:11.777Z,5.85
2023-04-22T07:41:14.194Z,4.95
2023-04-22T07:42:16.378Z,5.45
2023-04-22T07:43:18.694Z,4.50
2023-04-22T07:44:21.766Z,4.70
2023-04-22T07:45:23.965Z,3.92
2023-04-22T07:46:26.195Z,4.25
2023-04-22T07:47:28.367Z,4.63
2023-04-22T07:48:30.643Z,3.55
2023-04-22T07:49:32.784Z,3.60
2023-04-22T07:50:36.341Z,3.85
2023-04-22T07:51:39.629Z,3.75
2023-04-22T07:52:41.807Z,2.95
2023-04-22T07:53:44.013Z,3.55
2023-04-22T07:54:47.577Z,4.10
2023-04-22T07:55:49.875Z,5.45
2023-04-22T07:56:51.963Z,5.60
2023-04-22T07:57:54.180Z,4.93
2023-04-22T07:58:56.315Z,4.72
2023-04-22T07:59:58.368Z,3.97
2023-04-22T08:01:00.797Z,3.33
2023-04-22T08:02:03.098Z,3.60
2023-04-22T08:03:05.472Z,4.75
2023-04-22T08:04:08.413Z,5.93
2023-04-22T08:05:11.682Z,6.68
2023-04-22T08:06:13.889Z,6.97
2023-04-22T08:07:30.927Z,6.10
2023-04-22T08:08:35.369Z,5.07
2023-04-22T08:09:37.801Z,4.70
2023-04-22T08:10:41.661Z,4.28
2023-04-22T08:11:43.903Z,4.70
2023-04-22T08:12:46.225Z,4.28
2023-04-22T08:13:48.395Z,4.50
2023-04-22T08:14:50.787Z,4.50
2023-04-22T08:15:53.197Z,6.82
2023-04-22T08:16:55.702Z,6.80
2023-04-22T08:17:57.978Z,7.05
2023-04-22T08:19:00.133Z,7.03
2023-04-22T08:20:02.383Z,6.65
2023-04-22T08:21:04.628Z,7.00
2023-04-22T08:22:07.137Z,6.13
2023-04-22T08:23:09.453Z,2.55
2023-04-22T08:24:11.532Z,2.45
2023-04-22T08:25:13.753Z,1.70
2023-04-22T08:26:17.363Z,2.55
2023-04-22T08:27:21.706Z,3.00
2023-04-22T08:28:23.904Z,3.00
2023-04-22T08:29:26.116Z,3.10
2023-04-22T08:30:28.271Z,3.70
2023-04-22T08:31:30.867Z,4.70
2023-04-22T08:32:33.329Z,3.90
2023-04-22T08:33:35.502Z,3.85
2023-04-22T08:34:38.975Z,2.40
2023-04-22T08:35:41.592Z,1.50
2023-04-22T08:36:43.770Z,1.90
2023-04-22T08:37:45.928Z,2.03
2023-04-22T08:38:50.028Z,1.98
2023-04-22T08:39:53.449Z,1.83
2023-04-22T08:40:57.185Z,1.95
2023-04-22T08:42:02.276Z,1.83
2023-04-22T08:43:05.084Z,1.92
2023-04-22T08:44:08.979Z,1.80
2023-04-22T08:45:11.699Z,1.80
2023-04-22T08:46:15.728Z,2.05
2023-04-22T08:47:20.571Z,2.53
2023-04-22T08:48:23.727Z,1.98
2023-04-22T08:49:27.179Z,1.98
2023-04-22T08:50:30.228Z,2.10
2023-04-22T08:51:33.968Z,2.10
2023-04-22T08:52:36.340Z,1.75
2023-04-22T08:53:38.440Z,1.73
2023-04-22T08:54:40.560Z,1.83
2023-04-22T08:55:44.981Z,1.70
2023-04-22T08:56:49.516Z,1.50
2023-04-22T08:57:54.146Z,1.40
2023-04-22T08:58:57.252Z,2.00
2023-04-22T09:00:03.725Z,1.50
2023-04-22T09:01:07.104Z,1.50
2023-04-22T09:02:20.250Z,1.70
2023-04-22T09:03:23.305Z,1.50
2023-04-22T09:04:25.753Z,1.50
2023-04-22T09:05:29.625Z,1.55
2023-04-22T09:06:42.588Z,1.60
2023-04-22T09:10:12.039Z,1.40
2023-04-22T09:11:14.208Z,1.50
2023-04-22T09:12:19.051Z,1.52
2023-04-22T09:13:24.706Z,1.30
2023-04-22T09:14:27.935Z,1.15
2023-04-22T09:16:50.262Z,1.50
2023-04-22T09:17:52.771Z,1.70
2023-04-22T09:18:55.057Z,1.55
2023-04-22T09:19:59.381Z,1.52
2023-04-22T09:21:01.629Z,1.58
2023-04-22T09:22:04.320Z,1.50
2023-04-22T09:27:03.884Z,1.63
2023-04-22T09:28:06.021Z,1.67
2023-04-22T09:29:14.560Z,1.70
2023-04-22T09:30:19.207Z,1.80
2023-04-22T09:31:22.256Z,1.63
2023-04-22T09:32:26.144Z,1.45
2023-04-22T09:33:28.281Z,1.33
2023-04-22T09:34:30.828Z,1.90
2023-04-22T09:35:34.165Z,1.63
2023-04-22T09:36:39.185Z,1.70
2023-04-22T09:37:49.372Z,1.48
2023-04-22T09:38:56.259Z,1.90
2023-04-22T09:39:58.350Z,1.50
2023-04-22T09:41:00.593Z,1.58
2023-04-22T09:42:02.804Z,1.80
2023-04-22T09:43:07.635Z,1.40
2023-04-22T09:44:15.340Z,1.80
2023-04-22T09:45:27.272Z,1.98
2023-04-22T09:46:31.275Z,2.33
2023-04-22T09:47:36.823Z,1.75
2023-04-22T09:48:43.617Z,1.63
2023-04-22T09:49:47.035Z,1.90
2023-04-22T09:50:51.494Z,1.50
2023-04-22T09:51:57.880Z,1.70
2023-04-22T09:53:02.945Z,1.00
2023-04-22T09:54:09.808Z,1.30
2023-04-22T09:55:11.930Z,1.38
2023-04-22T09:56:14.024Z,1.42
2023-04-22T09:57:17.252Z,1.20
2023-04-22T09:58:21.049Z,1.52
2023-04-22T09:59:26.156Z,4.25
2023-04-22T10:00:30.698Z,1.30
2023-04-22T10:01:36.494Z,1.40
2023-04-22T10:02:38.805Z,1.65
2023-04-22T10:03:41.217Z,1.88
2023-04-22T10:04:43.381Z,1.73
2023-04-22T10:05:46.285Z,2.22
2023-04-22T10:06:49.341Z,2.20
2023-04-22T10:07:52.039Z,2.10
2023-04-22T10:08:54.481Z,1.90
2023-04-22T10:09:57.431Z,2.22
2023-04-22T10:10:59.594Z,2.67
2023-04-22T10:12:02.053Z,2.20
2023-04-22T10:13:05.162Z,1.60
2023-04-22T10:15:14.057Z,1.55
2023-04-22T10:16:18.838Z,1.83
2023-04-22T10:17:21.969Z,1.70
2023-04-22T10:18:26.322Z,1.90
2023-04-22T10:19:28.909Z,1.50
2023-04-22T10:20:33.427Z,1.52
2023-04-22T10:21:36.313Z,1.65
2023-04-22T10:22:39.929Z,1.70
2023-04-22T10:23:47.265Z,1.50
2023-04-22T10:24:50.583Z,1.75
2023-04-22T10:25:55.093Z,2.20
2023-04-22T10:26:59.723Z,2.33
2023-04-22T10:28:03.827Z,1.77
2023-04-22T10:29:06.575Z,1.98
2023-04-22T10:30:10.404Z,1.40
2023-04-22T10:31:22.431Z,2.00
2023-04-22T10:32:26.349Z,1.60
2023-04-22T10:33:39.536Z,1.27
2023-04-22T10:34:41.868Z,0.98
2023-04-22T10:36:09.329Z,1.55
2023-04-22T10:37:13.014Z,1.60
2023-04-22T10:38:16.630Z,1.77
2023-04-22T10:39:19.016Z,1.80
2023-04-22T10:40:22.872Z,1.45
2023-04-22T10:41:25.758Z,1.92
2023-04-22T10:42:29.024Z,1.70
2023-04-22T10:43:44.712Z,1.60
2023-04-22T10:44:51.189Z,1.88
2023-04-22T10:45:53.367Z,1.85
2023-04-22T10:47:01.004Z,2.17
2023-04-22T10:48:04.726Z,2.30
2023-04-22T10:49:07.354Z,2.35
2023-04-22T10:50:21.609Z,2.42
2023-04-22T10:51:38.969Z,3.33
2023-04-22T10:52:42.115Z,3.10
2023-04-22T10:53:46.121Z,3.85
2023-04-22T10:54:58.913Z,4.53
2023-04-22T10:56:03.161Z,5.93
2023-04-22T10:57:06.826Z,4.70
2023-04-22T10:58:20.070Z,4.38
2023-04-22T10:59:22.182Z,4.18
2023-04-22T11:00:29.574Z,4.07
2023-04-22T11:01:42.058Z,3.70
2023-04-22T11:02:46.873Z,3.65
2023-04-22T11:03:51.141Z,4.15
2023-04-22T11:05:20.357Z,4.22
2023-04-22T11:06:24.895Z,3.78
2023-04-22T11:07:31.956Z,4.32
2023-04-22T11:08:34.087Z,6.30
2023-04-22T11:09:40.736Z,6.22
2023-04-22T11:10:45.056Z,6.32
2023-04-22T11:11:48.062Z,5.72
2023-04-22T11:12:50.316Z,6.32
2023-04-22T11:13:53.142Z,5.72
2023-04-22T11:15:02.946Z,6.20
2023-04-22T11:16:13.386Z,5.43
2023-04-22T11:17:19.263Z,5.68
2023-04-22T11:18:24.104Z,5.80
2023-04-22T11:19:29.515Z,5.68
2023-04-22T11:20:34.217Z,4.68
2023-04-22T11:21:37.466Z,5.28
2023-04-22T11:22:41.800Z,4.53
2023-04-22T11:23:52.042Z,3.22
2023-04-22T11:24:55.033Z,3.63
2023-04-22T11:26:01.182Z,3.20
2023-04-22T11:27:06.114Z,3.03
2023-04-22T11:28:12.328Z,2.60
2023-04-22T11:29:14.682Z,3.30
2023-04-22T11:30:18.274Z,4.00
2023-04-22T11:31:20.658Z,3.35
2023-04-22T11:32:26.395Z,4.78
2023-04-22T11:33:32.466Z,3.75
2023-04-22T11:34:35.919Z,3.65
2023-04-22T11:35:39.844Z,2.67
2023-04-22T11:36:47.923Z,4.43
2023-04-22T11:37:53.072Z,4.30
2023-04-22T11:38:58.671Z,3.53
2023-04-22T11:40:21.660Z,3.88
2023-04-22T11:41:26.121Z,4.15
2023-04-22T11:42:28.481Z,5.00
2023-04-22T11:43:35.248Z,6.18
2023-04-22T11:44:38.074Z,6.80
2023-04-22T11:45:41.411Z,6.35
2023-04-22T11:46:45.906Z,6.53
2023-04-22T11:47:52.416Z,7.25
2023-04-22T11:49:12.415Z,7.18
2023-04-22T11:50:32.680Z,6.47
2023-04-22T11:51:35.440Z,6.43
2023-04-22T11:52:48.155Z,4.93
2023-04-22T11:53:52.848Z,2.97
2023-04-22T11:55:01.178Z,2.47
2023-04-22T11:56:04.279Z,2.60
2023-04-22T11:57:15.773Z,2.10
2023-04-22T11:58:25.177Z,2.08
2023-04-22T11:59:28.856Z,4.25
2023-04-22T12:00:34.990Z,5.45
2023-04-22T12:01:40.249Z,5.00
2023-04-22T12:02:48.112Z,4.68
2023-04-22T12:04:03.979Z,4.20
2023-04-22T12:05:19.251Z,4.15
2023-04-22T12:06:25.406Z,5.72
2023-04-22T12:07:28.072Z,13.32
2023-04-22T12:08:36.780Z,8.70
2023-04-22T12:09:42.882Z,5.63
2023-04-22T12:10:47.355Z,4.32
2023-04-22T12:11:52.823Z,3.90
2023-04-22T12:12:57.925Z,4.63
2023-04-22T12:14:06.530Z,4.18
2023-04-22T12:15:13.659Z,4.43
2023-04-22T12:16:22.562Z,4.90
2023-04-22T12:17:30.648Z,5.03
2023-04-22T12:18:34.188Z,5.03
2023-04-22T12:19:38.345Z,2.63
2023-04-22T12:20:42.103Z,2.20
2023-04-22T12:21:44.585Z,3.08
2023-04-22T12:22:46.916Z,3.05
2023-04-22T12:23:50.712Z,2.90
2023-04-22T12:24:53.028Z,2.55
2023-04-22T12:25:55.235Z,1.77
2023-04-22T12:26:58.662Z,1.98
2023-04-22T12:28:01.253Z,1.80
2023-04-22T12:29:03.987Z,1.80
2023-04-22T12:30:08.340Z,1.75
2023-04-22T12:31:11.032Z,2.20
2023-04-22T12:32:13.369Z,1.90
2023-04-22T12:33:15.790Z,1.63
2023-04-22T12:34:18.110Z,2.00
2023-04-22T12:35:21.945Z,2.00
2023-04-22T12:36:25.148Z,1.70
2023-04-22T12:37:28.099Z,1.45
2023-04-22T12:38:33.730Z,1.38
2023-04-22T12:39:38.029Z,1.48
2023-04-22T12:40:40.736Z,1.90
2023-04-22T12:41:47.384Z,1.98
2023-04-22T12:42:49.891Z,1.67
2023-04-22T12:43:55.617Z,1.83
2023-04-22T12:44:57.932Z,1.52
2023-04-22T12:46:01.584Z,2.25
2023-04-22T12:47:04.563Z,2.10
2023-04-22T12:48:07.064Z,2.10
2023-04-22T12:49:10.391Z,2.38
2023-04-22T12:50:14.464Z,4.40
2023-04-22T12:51:18.459Z,2.03
2023-04-22T12:52:21.247Z,1.77
2023-04-22T12:53:27.726Z,1.70
2023-04-22T12:54:30.044Z,1.63
2023-04-22T12:55:32.522Z,2.00
2023-04-22T12:56:34.827Z,2.20
2023-04-22T12:57:37.524Z,1.98
2023-04-22T12:58:39.845Z,1.58
2023-04-22T12:59:42.690Z,1.50
2023-04-22T13:00:44.931Z,1.90
2023-04-22T13:01:47.244Z,1.73
2023-04-22T13:02:50.458Z,1.70
2023-04-22T13:03:53.424Z,1.17
2023-04-22T13:04:55.900Z,1.52
2023-04-22T13:05:58.252Z,1.52
2023-04-22T13:07:02.010Z,1.40
2023-04-22T13:08:07.516Z,1.80
2023-04-22T13:09:10.857Z,1.77
2023-04-22T13:10:15.389Z,1.70
2023-04-22T13:11:17.665Z,1.80
2023-04-22T13:12:20.144Z,1.52
2023-04-22T13:13:22.382Z,1.65
2023-04-22T13:14:25.064Z,1.60
2023-04-22T13:15:27.317Z,1.92
2023-04-22T13:16:29.621Z,1.50
2023-04-22T13:17:32.019Z,1.80
2023-04-22T13:18:34.267Z,1.48
2023-04-22T13:19:36.708Z,1.60
2023-04-22T13:20:39.971Z,1.48
2023-04-22T13:21:42.745Z,1.63
2023-04-22T13:22:48.104Z,1.45
2023-04-22T13:23:50.421Z,1.40
2023-04-22T13:24:53.247Z,1.60
2023-04-22T13:25:56.123Z,1.60
2023-04-22T13:27:01.784Z,1.50
2023-04-22T13:28:04.275Z,1.60
2023-04-22T13:29:14.163Z,1.60
2023-04-22T13:30:16.795Z,2.00
2023-04-22T13:31:19.063Z,2.10
2023-04-22T13:32:21.393Z,1.63
2023-04-22T13:33:23.918Z,1.50
2023-04-22T13:34:26.307Z,1.50
2023-04-22T13:35:28.537Z,1.75
2023-04-22T13:36:31.317Z,1.40
2023-04-22T13:37:33.722Z,1.40
2023-04-22T13:38:38.413Z,1.50
2023-04-22T13:39:41.087Z,1.58
2023-04-22T13:40:43.558Z,1.75
2023-04-22T13:41:45.900Z,1.60
2023-04-22T13:42:48.224Z,1.70
2023-04-22T13:43:54.842Z,1.65
2023-04-22T13:44:59.547Z,1.63
2023-04-22T13:46:02.025Z,2.50
2023-04-22T13:47:06.417Z,1.60
2023-04-22T13:48:08.808Z,1.65
2023-04-22T13:49:11.484Z,1.40
2023-04-22T13:50:16.239Z,1.50
2023-04-22T13:51:18.676Z,1.60
2023-04-22T13:52:21.038Z,1.20
2023-04-22T13:53:26.696Z,1.42
2023-04-22T13:54:32.004Z,1.70
2023-04-22T13:55:34.501Z,1.33
2023-04-22T13:56:36.857Z,1.50
2023-04-22T13:57:39.248Z,1.70
2023-04-22T13:58:44.387Z,1.58
2023-04-22T13:59:50.252Z,1.58
2023-04-22T14:00:52.572Z,1.50
2023-04-22T14:01:55.896Z,1.40
2023-04-22T14:02:58.606Z,1.30
2023-04-22T14:04:01.319Z,1.25
2023-04-22T14:05:04.215Z,1.60
2023-04-22T14:06:07.137Z,1.20
2023-04-22T14:07:10.027Z,1.30
2023-04-22T14:08:13.071Z,1.65
2023-04-22T14:09:15.440Z,1.15
2023-04-22T14:10:20.622Z,1.10
2023-04-22T14:11:22.860Z,1.42
2023-04-22T14:12:25.048Z,1.00
2023-04-22T14:13:27.661Z,1.40
2023-04-22T14:14:29.928Z,1.30